Terminal Aerodrome Forecast
Issued by NWS Brownsville, TX

Home | Current Version | Previous Version | Text Only | Print | Product List | Glossary On
Versions: 1 2 3 4 5 6 7 8 9 10 11 12 13 14 15 16 17 18
000
FTUS44 KBRO 071127
TAFMFE
TAF
KMFE 071127Z 0712/0812 02006KT P6SM OVC007
     FM071500 04007KT 6SM BR SCT007 BKN015
     FM071900 04005KT P6SM SCT015 BKN030
     FM080400 01005KT 6SM BR OVC015
     FM081100 34011KT P6SM OVC006=

USA.gov is the U.S. government's official web portal to all federal, state and local government web resources and services.